Nearby METAR Reports

EGNX - East Midlands, United Kingdom
Distance: S 18mi, 28km
Updated: 21/11/2018 03:50
Mostly cloudy
Mostly cloudy
 Wind from NE
Wind: NE 7 mph , 11 km/h
Temperature: 2°C
Wind Chill: -1°C
Dew Point: 2°C
Humidity: 100%
Barometer: 1005 hPa
Clouds: Mostly cloudy
Visibility: 5 miles , 8 km
Cloud details: Partly cloudy 122 m
Mostly cloudy 457 m
2018/11/21 03:50 EGNX 210350Z 05006KT 8000 SCT004 BKN015 02/02 Q1005
EGCN - Doncaster Sheffi, United Kingdom
Distance: NNE 31mi, 50km
Updated: 21/11/2018 03:50
Rain, Mostly cloudy
Rain, Mostly cloudy
 Wind from SE
Wind: SE 6 mph , 9 km/h
Temperature: 4°C
Wind Chill: 2°C
Dew Point: 4°C
Humidity: 100%
Barometer: 1007 hPa
Summary: Rain
Clouds: Mostly cloudy
Visibility: 6 miles , 10 km
Cloud details: Few Clouds 213 m
Mostly cloudy 335 m
Mostly cloudy 457 m
2018/11/21 03:50 EGCN 210350Z 14005KT 110V170 9999 RA FEW007 BKN011 BKN015 04/04 Q1007
EGYE - Barkston Heath R, United Kingdom
Distance: ESE 31mi, 50km
Updated: 20/11/2018 12:50
NOT Current
Rain, Mostly cloudy
Rain, Mostly cloudy
 Wind from ENE
Wind: ENE 18 mph , 30 km/h, Gust: 32 mph , 52 km/h
Barometer: 1010 hPa
Summary: Rain
Clouds: Mostly cloudy
Visibility: 5 miles , 8 km
Cloud details: Few Clouds 335 m
Mostly cloudy 518 m
Mostly cloudy 914 m
2018/11/20 12:50 EGYE 201250Z 07016G28KT 8000 RA FEW011 BKN017 BKN030 ///// Q1010 WHT
 
EGXW - Waddington Raf, United Kingdom
Distance: ENE 33mi, 53km
Updated: 21/11/2018 03:50
Light rain, Mostly cloudy
Light rain, Mostly cloudy
 Wind from ENE
Wind: ENE 9 mph , 15 km/h
Temperature: 3°C
Wind Chill: -1°C
Dew Point: 3°C
Humidity: 100%
Barometer: 1006 hPa
Summary: Light rain
Clouds: Mostly cloudy
Visibility: 4 miles , 6 km
Cloud details: Partly cloudy 366 m
Mostly cloudy 2134 m
2018/11/21 03:50 EGXW 210350Z 07008KT 6000 -RA SCT012 BKN070 03/03 Q1006 RERA GRN
EGYD - Cranwell Raf, United Kingdom
Distance: E 33mi, 53km
Updated: 21/11/2018 02:50
Partly cloudy
Partly cloudy
 Wind from NE
Wind: NE 6 mph , 9 km/h
Temperature: 3°C
Wind Chill: 0°C
Dew Point: 3°C
Humidity: 100%
Barometer: 1005 hPa
Clouds: Partly cloudy
Visibility: 3 miles , 5 km
Cloud details: Mostly cloudy 366 m
Partly cloudy 2743 m
2018/11/21 02:50 EGYD 210250Z AUTO 05005KT 4600 // BKN012/// SCT090/// 03/03 Q1005
EGXP - Scampton Raf, United Kingdom
Distance: ENE 35mi, 56km
Updated: 21/11/2018 02:50
Mostly cloudy
Mostly cloudy
 Wind from ESE
Wind: ESE 6 mph , 9 km/h
Temperature: 3°C
Wind Chill: 0°C
Dew Point: 3°C
Humidity: 100%
Barometer: 1006 hPa
Clouds: Mostly cloudy
Visibility: 4 miles , 7 km
Cloud details: Mostly cloudy 366 m
Mostly cloudy 823 m
2018/11/21 02:50 EGXP 210250Z AUTO 12005KT 7000 // BKN012/// BKN027/// 03/03 Q1006
 
EGCC - Manchester Intl, United Kingdom
Distance: WNW 45mi, 72km
Updated: 21/11/2018 03:50
Light rain, Mostly cloudy
Light rain, Mostly cloudy
 Wind from ENE
Wind: ENE 3 mph , 6 km/h
Temperature: 3°C
Dew Point: 1°C
Humidity: 87%
Barometer: 1006 hPa
Summary: Light rain
Clouds: Mostly cloudy
Visibility: 6 miles , 10 km
Cloud details: Mostly cloudy 488 m
Mostly cloudy 762 m
Mostly cloudy 1219 m
2018/11/21 03:50 EGCC 210350Z AUTO 06003KT 9999 -RA BKN016 BKN025 BKN040 03/01 Q1006 TEMPO RA BKN012
EGBB - Birmingham Airpo, United Kingdom
Distance: SSW 46mi, 74km
Updated: 21/11/2018 03:50
Overcast
Overcast
 Wind from NE
Wind: NE 3 mph , 6 km/h
Temperature: 3°C
Dew Point: 2°C
Humidity: 93%
Barometer: 1005 hPa
Clouds: Overcast
Visibility: 4 miles , 7 km
Cloud details: Overcast 152 m
2018/11/21 03:50 EGBB 210350Z AUTO 04003KT 7000 OVC005/// 03/02 Q1005
EGXC - Coningsby Raf, United Kingdom
Distance: E 47mi, 75km
Updated: 21/11/2018 03:50
Light rain, Mostly cloudy
Light rain, Mostly cloudy
 Wind from ESE
Wind: ESE 8 mph , 13 km/h
Temperature: 4°C
Wind Chill: 1°C
Dew Point: 3°C
Humidity: 93%
Barometer: 1006 hPa
Summary: Light rain
Clouds: Mostly cloudy
Visibility: 4 miles , 6 km
Cloud details: Partly cloudy 457 m
Mostly cloudy 1219 m
2018/11/21 03:50 EGXC 210350Z 11007KT 6000 -RA SCT015 BKN040 04/03 Q1006 WHT
 
EGXT - Wittering Raf, United Kingdom
Distance: SE 47mi, 75km
Updated: 21/11/2018 02:50
Light rain, Drizzle, Mostly cloudy
Light rain, Drizzle, Mostly cloudy
 Wind from ENE
Wind: ENE 8 mph , 13 km/h
Temperature: 3°C
Wind Chill: -1°C
Dew Point: 3°C
Humidity: 100%
Barometer: 1005 hPa
Summary: Light rain, Drizzle
Clouds: Mostly cloudy
Visibility: 3 miles , 4 km
Cloud details: Partly cloudy 518 m
Mostly cloudy 1372 m
2018/11/21 02:50 EGXT 210250Z AUTO 07007KT 4400 -RADZ SCT017/// BKN045/// 03/03 Q1005
EGNJ - Humberside, United Kingdom
Distance: NE 52mi, 83km
Updated: 21/11/2018 03:50
Drizzle, Mostly cloudy
Drizzle, Mostly cloudy
 Wind from ESE
Wind: ESE 14 mph , 22 km/h
Temperature: 5°C
Wind Chill: 1°C
Dew Point: 4°C
Humidity: 93%
Barometer: 1007 hPa
Summary: Drizzle
Clouds: Mostly cloudy
Visibility: 2 miles , 3 km
Cloud details: Few Clouds 213 m
Partly cloudy 305 m
Mostly cloudy 457 m
2018/11/21 03:50 EGNJ 210350Z AUTO 12012KT 3100 DZ FEW007/// SCT010/// BKN015/// 05/04 Q1007 RERA
EGWC - Cosford Raf, United Kingdom
Distance: SW 52mi, 83km
Updated: 20/11/2018 12:50
NOT Current
Light rain, Showers, Overcast
Light rain, Showers, Overcast
 Wind from NE
Wind: NE 16 mph , 26 km/h
Temperature: 6°C
Wind Chill: 2°C
Dew Point: 2°C
Humidity: 76%
Barometer: 1010 hPa
Summary: Light rain, Showers
Clouds: Overcast
Visibility: 6 miles , 10 km
Cloud details: Mostly cloudy 488 m
Overcast 762 m
2018/11/20 12:50 EGWC 201250Z 04014KT 9999 -SHRA BKN016 OVC025 06/02 Q1010 WHT
 
EGNM - Leeds And Bradfo, United Kingdom
Distance: NNW 57mi, 91km
Updated: 21/11/2018 03:50
Mist, Mostly cloudy
Mist, Mostly cloudy
 Wind from E
Wind: E 12 mph , 19 km/h
Temperature: 2°C
Wind Chill: -2°C
Dew Point: 2°C
Humidity: 100%
Barometer: 1006 hPa
Summary: Mist
Clouds: Mostly cloudy
Visibility: 5 miles , 8 km
Cloud details: Mostly cloudy 91 m
2018/11/21 03:50 EGNM 210350Z 08010KT 010V160 8000 BR BKN003 02/02 Q1006
EGOS - Shawbury Raf, United Kingdom
Distance: WSW 60mi, 97km
Updated: 21/11/2018 02:50
Light rain, Overcast
Light rain, Overcast
 Wind from ENE
Wind: ENE 6 mph , 9 km/h
Temperature: 3°C
Wind Chill: 0°C
Dew Point: 2°C
Humidity: 93%
Barometer: 1005 hPa
Summary: Light rain
Clouds: Overcast
Visibility: 6 miles , 10 km
Cloud details: Overcast 244 m
2018/11/21 02:50 EGOS 210250Z AUTO 06005KT 9999 -RA OVC008/// 03/02 Q1005
EGYH - Holbeach (aut), United Kingdom
Distance: ESE 62mi, 99km
Updated: 20/11/2018 15:50
NOT Current
Light rain, Mostly cloudy
Light rain, Mostly cloudy
 Wind from E
Wind: E 28 mph , 44 km/h
Temperature: 5°C
Wind Chill: -1°C
Dew Point: 3°C
Humidity: 87%
Barometer: 1009 hPa
Summary: Light rain
Clouds: Mostly cloudy
Visibility: 6 miles , 10 km
Cloud details: Partly cloudy 457 m
Mostly cloudy 914 m
2018/11/20 15:50 EGYH 201550Z 10024KT 9999 -RA SCT015 BKN030 05/03 Q1009 WHT
 
EGXV - Leconfield (aut), United Kingdom
Distance: NNE 65mi, 105km
Updated: 21/11/2018 03:50
Light rain, Partly cloudy
Light rain, Partly cloudy
 Wind from ESE
Wind: ESE 5 mph , 7 km/h
Temperature: 4°C
Wind Chill: 2°C
Dew Point: 3°C
Humidity: 93%
Barometer: 1007 hPa
Summary: Light rain
Clouds: Partly cloudy
Visibility: 6 miles , 10 km
Cloud details: Mostly cloudy 610 m
Partly cloudy 1524 m
2018/11/21 03:50 EGXV 210350Z AUTO 11004KT 9999 -RA BKN020/// SCT050/// 04/03 Q1007
EGXS - Donna Nook Raf, United Kingdom
Distance: ENE 66mi, 106km
Updated: 21/11/2018 02:50
Mostly cloudy
Mostly cloudy
 Wind from E
Wind: E 23 mph , 37 km/h
Temperature: 6°C
Wind Chill: 1°C
Dew Point: 4°C
Humidity: 87%
Barometer: 1006 hPa
Clouds: Mostly cloudy
Visibility: 6 miles , 10 km
Cloud details: Few Clouds 366 m
Partly cloudy 701 m
Mostly cloudy 1829 m
2018/11/21 02:50 EGXS 210250Z AUTO 09020KT 9999 // FEW012/// SCT023/// BKN060/// 06/04 Q1006
EGGP - Liverpool Airpor, United Kingdom
Distance: WNW 67mi, 107km
Updated: 21/11/2018 03:50
Rain, Mostly cloudy
Rain, Mostly cloudy
 Wind from ENE
Wind: ENE 9 mph , 15 km/h
Temperature: 3°C
Wind Chill: -1°C
Dew Point: 2°C
Humidity: 93%
Barometer: 1006 hPa
Summary: Rain
Clouds: Mostly cloudy
Visibility: 6 miles , 10 km
Cloud details: Mostly cloudy 335 m
Mostly cloudy 701 m
2018/11/21 03:50 EGGP 210350Z AUTO 06008KT 9999 RA BKN011/// BKN023/// 03/02 Q1006
 
EGXU - Linton-On-Ouse R, United Kingdom
Distance: N 68mi, 109km
Updated: 21/11/2018 02:50
Mostly cloudy
Mostly cloudy
 Wind from ENE
Wind: ENE 8 mph , 13 km/h
Temperature: 4°C
Wind Chill: 1°C
Dew Point: 3°C
Humidity: 93%
Barometer: 1007 hPa
Clouds: Mostly cloudy
Visibility: 6 miles , 9 km
Cloud details: Mostly cloudy 335 m
2018/11/21 02:50 EGXU 210250Z AUTO 06007KT 9000 // BKN011/// 04/03 Q1007
EGNR - Hawarden (aut), United Kingdom
Distance: W 70mi, 112km
Updated: 20/11/2018 20:50
NOT Current
Partly cloudy
Partly cloudy
 Wind from NE
Wind: NE 5 mph , 7 km/h
Temperature: 4°C
Wind Chill: 2°C
Dew Point: 2°C
Humidity: 87%
Barometer: 1010 hPa
Clouds: Partly cloudy
Visibility: 6 miles , 10 km
Cloud details: Partly cloudy 1372 m
2018/11/20 20:50 EGNR 202050Z 04004KT 9999 SCT045 04/02 Q1010